createdAt,value
2018-12-18T00:00:34.170Z,35.10
2018-12-18T00:03:01.602Z,38.47
2018-12-18T00:05:34.071Z,35.17
2018-12-18T00:08:02.574Z,35.17
2018-12-18T00:10:35.703Z,36.90
2018-12-18T00:13:03.826Z,33.67
2018-12-18T00:15:31.230Z,42.33
2018-12-18T00:17:59.062Z,38.40
2018-12-18T00:20:26.621Z,43.33
2018-12-18T00:22:54.027Z,43.53
2018-12-18T00:25:21.477Z,41.17
2018-12-18T00:27:49.089Z,44.30
2018-12-18T00:30:16.494Z,42.63
2018-12-18T00:32:43.939Z,50.37
2018-12-18T00:35:11.387Z,54.73
2018-12-18T00:37:38.837Z,43.13
2018-12-18T00:40:21.494Z,44.30
2018-12-18T00:42:48.871Z,53.53
2018-12-18T00:45:16.335Z,57.93
2018-12-18T00:47:44.032Z,50.10
2018-12-18T00:50:11.630Z,45.63
2018-12-18T00:52:39.101Z,44.47
2018-12-18T00:55:07.570Z,48.70
2018-12-18T00:57:34.940Z,52.40
2018-12-18T01:00:02.555Z,45.13
2018-12-18T01:02:29.946Z,47.77
2018-12-18T01:04:57.350Z,51.70
2018-12-18T01:07:24.818Z,62.97
2018-12-18T01:09:52.223Z,54.00
2018-12-18T01:12:19.666Z,42.20
2018-12-18T01:14:47.077Z,48.93
2018-12-18T01:17:14.523Z,53.97
2018-12-18T01:19:41.982Z,57.47
2018-12-18T01:22:09.449Z,52.37
2018-12-18T01:24:36.897Z,50.17
2018-12-18T01:27:04.361Z,43.03
2018-12-18T01:29:31.801Z,47.73
2018-12-18T01:31:59.308Z,56.70
2018-12-18T01:34:26.682Z,51.87
2018-12-18T01:36:54.225Z,47.53
2018-12-18T01:39:27.650Z,52.37
2018-12-18T01:41:57.717Z,49.43
2018-12-18T01:44:31.501Z,52.60
2018-12-18T01:47:00.198Z,47.93
2018-12-18T01:49:27.617Z,61.30
2018-12-18T01:51:55.055Z,43.63
2018-12-18T01:54:22.499Z,51.27
2018-12-18T01:56:49.975Z,57.00
2018-12-18T01:59:17.392Z,47.13
2018-12-18T02:01:44.775Z,59.47
2018-12-18T02:04:12.185Z,61.37
2018-12-18T02:06:39.623Z,49.93
2018-12-18T02:09:07.610Z,43.33
2018-12-18T02:11:35.182Z,52.80
2018-12-18T02:14:02.694Z,49.50
2018-12-18T02:16:30.111Z,50.40
2018-12-18T02:18:57.518Z,53.00
2018-12-18T02:21:24.968Z,60.83
2018-12-18T02:23:52.413Z,57.10
2018-12-18T02:26:19.879Z,64.63
2018-12-18T02:28:47.451Z,55.83
2018-12-18T02:31:14.887Z,58.20
2018-12-18T02:33:42.344Z,61.53
2018-12-18T02:36:09.758Z,58.10
2018-12-18T02:38:37.277Z,72.67
2018-12-18T02:41:04.714Z,57.57
2018-12-18T02:43:32.272Z,57.13
2018-12-18T02:45:59.665Z,60.87
2018-12-18T02:48:27.447Z,70.17
2018-12-18T02:50:56.141Z,52.67
2018-12-18T02:53:23.701Z,53.47
2018-12-18T02:55:51.122Z,66.90
2018-12-18T02:58:18.562Z,62.40
2018-12-18T03:00:45.998Z,60.67
2018-12-18T03:03:13.454Z,53.67
2018-12-18T03:05:41.143Z,67.10
2018-12-18T03:08:08.645Z,64.40
2018-12-18T03:10:36.175Z,62.67
2018-12-18T03:13:03.667Z,50.40
2018-12-18T03:15:31.055Z,67.30
2018-12-18T03:17:58.526Z,57.10
2018-12-18T03:20:25.921Z,46.20
2018-12-18T03:22:53.880Z,55.00
2018-12-18T03:25:21.799Z,55.77
2018-12-18T03:27:49.755Z,51.27
2018-12-18T03:30:18.571Z,46.57
2018-12-18T03:32:50.914Z,59.70
2018-12-18T03:35:18.850Z,50.00
2018-12-18T03:37:46.232Z,59.70
2018-12-18T03:40:14.177Z,51.73
2018-12-18T03:42:41.572Z,47.77
2018-12-18T03:45:08.999Z,43.73
2018-12-18T03:47:36.566Z,50.23
2018-12-18T03:50:04.814Z,51.60
2018-12-18T03:52:32.261Z,54.80
2018-12-18T03:54:59.653Z,52.20
2018-12-18T03:57:27.058Z,61.83
2018-12-18T03:59:54.557Z,45.67
2018-12-18T04:02:22.075Z,48.43
2018-12-18T04:04:49.584Z,45.23
2018-12-18T04:07:17.077Z,56.77
2018-12-18T04:09:44.538Z,56.47
2018-12-18T04:12:16.506Z,50.47
2018-12-18T04:14:43.986Z,61.60
2018-12-18T04:17:11.387Z,58.70
2018-12-18T04:19:38.774Z,50.10
2018-12-18T04:22:06.190Z,50.00
2018-12-18T04:24:33.742Z,47.40
2018-12-18T04:27:01.144Z,52.33
2018-12-18T04:29:28.494Z,55.53
2018-12-18T04:31:55.870Z,66.77
2018-12-18T04:34:23.359Z,57.67
2018-12-18T04:36:50.745Z,54.27
2018-12-18T04:39:18.397Z,50.33
2018-12-18T04:41:45.836Z,56.30
2018-12-18T04:44:13.267Z,57.00
2018-12-18T04:46:40.658Z,61.83
2018-12-18T04:49:08.067Z,46.03
2018-12-18T04:51:35.571Z,46.47
2018-12-18T04:54:03.055Z,51.63
2018-12-18T04:56:30.490Z,60.03
2018-12-18T04:58:57.991Z,71.80
2018-12-18T05:01:25.395Z,60.23
2018-12-18T05:03:52.801Z,58.23
2018-12-18T05:06:20.234Z,47.17
2018-12-18T05:08:47.684Z,52.43
2018-12-18T05:11:15.170Z,56.53
2018-12-18T05:13:42.745Z,56.73
2018-12-18T05:16:10.122Z,51.63
2018-12-18T05:18:37.504Z,61.73
2018-12-18T05:21:04.933Z,49.17
2018-12-18T05:23:32.352Z,52.37
2018-12-18T05:25:59.942Z,48.07
2018-12-18T05:28:27.359Z,57.57
2018-12-18T05:30:55.622Z,45.63
2018-12-18T05:33:23.636Z,48.57
2018-12-18T05:35:51.082Z,43.53
2018-12-18T05:38:18.600Z,52.77
2018-12-18T05:40:46.023Z,51.07
2018-12-18T05:43:13.438Z,47.63
2018-12-18T05:45:40.842Z,55.90
2018-12-18T05:48:08.282Z,46.83
2018-12-18T05:50:35.674Z,46.50
2018-12-18T05:53:03.202Z,43.40
2018-12-18T05:55:30.596Z,50.87
2018-12-18T05:57:57.995Z,43.37
2018-12-18T06:00:25.486Z,48.47
2018-12-18T06:02:52.924Z,44.00
2018-12-18T06:05:20.322Z,48.70
2018-12-18T06:07:47.711Z,47.27
2018-12-18T06:10:16.198Z,47.50
2018-12-18T06:12:46.033Z,59.00
2018-12-18T06:15:13.834Z,46.83
2018-12-18T06:17:41.298Z,46.47
2018-12-18T06:20:08.819Z,44.20
2018-12-18T06:22:38.627Z,45.97
2018-12-18T06:25:06.351Z,42.80
2018-12-18T06:27:34.531Z,50.60
2018-12-18T06:30:03.515Z,40.97
2018-12-18T06:32:30.937Z,40.97
2018-12-18T06:34:58.310Z,37.43
2018-12-18T06:37:25.782Z,45.47
2018-12-18T06:39:53.249Z,46.07
2018-12-18T06:42:20.659Z,48.33
2018-12-18T06:44:48.073Z,49.33
2018-12-18T06:47:15.446Z,47.20
2018-12-18T06:49:42.990Z,59.23
2018-12-18T06:52:10.434Z,64.27
2018-12-18T06:54:38.961Z,55.40
2018-12-18T06:57:06.546Z,58.83
2018-12-18T06:59:33.930Z,51.57
2018-12-18T07:02:01.391Z,51.40
2018-12-18T07:04:28.792Z,49.63
2018-12-18T07:06:56.257Z,51.27
2018-12-18T07:09:23.897Z,69.57
2018-12-18T07:11:51.318Z,61.43
2018-12-18T07:14:18.731Z,56.70
2018-12-18T07:16:46.149Z,69.13
2018-12-18T07:19:13.615Z,64.10
2018-12-18T07:21:41.142Z,69.30
2018-12-18T07:24:14.103Z,53.10
2018-12-18T07:26:37.917Z,62.87
2018-12-18T07:29:05.367Z,66.33
2018-12-18T07:31:32.765Z,57.10
2018-12-18T07:34:00.235Z,73.80
2018-12-18T07:36:27.674Z,63.90
2018-12-18T07:38:55.110Z,66.40
2018-12-18T07:41:22.687Z,69.53
2018-12-18T07:43:50.183Z,74.27
2018-12-18T07:46:17.585Z,57.57
2018-12-18T07:48:45.029Z,75.73
2018-12-18T07:51:12.429Z,96.40
2018-12-18T07:53:39.810Z,91.43
2018-12-18T07:56:07.231Z,80.30
2018-12-18T07:58:34.633Z,72.57
2018-12-18T08:01:02.045Z,74.80
2018-12-18T08:03:29.549Z,76.60
2018-12-18T08:05:56.968Z,77.30
2018-12-18T08:08:24.381Z,77.50
2018-12-18T08:10:51.804Z,72.57
2018-12-18T08:13:19.219Z,73.80
2018-12-18T08:15:46.713Z,71.43
2018-12-18T08:18:14.125Z,58.90
2018-12-18T08:20:41.543Z,54.67
2018-12-18T08:23:08.975Z,61.87
2018-12-18T08:25:36.391Z,60.03
2018-12-18T08:28:03.841Z,68.00
2018-12-18T08:30:31.256Z,72.43
2018-12-18T08:35:53.046Z,66.57
2018-12-18T08:38:20.629Z,58.00
2018-12-18T08:40:48.071Z,49.13
2018-12-18T08:43:15.482Z,58.30
2018-12-18T08:45:42.869Z,63.63
2018-12-18T08:48:10.268Z,54.33
2018-12-18T08:50:38.657Z,61.60
2018-12-18T08:53:07.151Z,50.23
2018-12-18T08:55:34.554Z,54.87
2018-12-18T08:58:01.950Z,54.23
2018-12-18T09:00:30.482Z,49.13
2018-12-18T09:03:01.804Z,55.10
2018-12-18T09:05:29.205Z,45.37
2018-12-18T09:07:57.539Z,45.20
2018-12-18T09:10:24.986Z,38.27
2018-12-18T09:12:52.378Z,43.90
2018-12-18T09:15:25.469Z,36.17
2018-12-18T09:17:52.862Z,36.03
2018-12-18T09:20:20.258Z,34.17
2018-12-18T09:22:47.662Z,37.40
2018-12-18T09:25:15.178Z,34.73
2018-12-18T09:27:43.334Z,34.47
2018-12-18T09:30:10.799Z,38.73
2018-12-18T09:32:38.267Z,35.77
2018-12-18T09:35:06.735Z,37.13
2018-12-18T09:37:34.128Z,37.23
2018-12-18T09:40:01.859Z,37.60
2018-12-18T09:42:35.193Z,32.10
2018-12-18T09:45:02.998Z,37.63
2018-12-18T09:47:30.386Z,39.60
2018-12-18T09:49:57.854Z,41.50
2018-12-18T09:52:25.243Z,48.37
2018-12-18T09:54:52.665Z,42.77
2018-12-18T09:57:25.771Z,47.67
2018-12-18T09:59:53.193Z,45.27
2018-12-18T10:02:20.613Z,37.73
2018-12-18T10:04:48.024Z,46.60
2018-12-18T10:07:15.464Z,44.90
2018-12-18T10:09:42.871Z,46.73
2018-12-18T10:12:10.295Z,53.47
2018-12-18T10:14:37.721Z,45.90
2018-12-18T10:17:05.126Z,96.70
2018-12-18T10:19:32.531Z,78.00
2018-12-18T10:22:00.813Z,66.63
2018-12-18T10:24:28.215Z,55.57
2018-12-18T10:26:55.638Z,65.23
2018-12-18T10:29:23.049Z,36.93
2018-12-18T10:31:50.603Z,38.17
2018-12-18T10:34:19.765Z,44.30
2018-12-18T10:36:47.286Z,35.97
2018-12-18T10:39:15.510Z,39.13
2018-12-18T10:41:42.942Z,42.67
2018-12-18T10:44:11.420Z,47.73
2018-12-18T10:46:38.866Z,40.87
2018-12-18T10:49:09.203Z,40.33
2018-12-18T10:51:36.602Z,28.10
2018-12-18T10:54:04.206Z,25.73
2018-12-18T10:56:31.721Z,22.20
2018-12-18T10:58:59.264Z,19.73
2018-12-18T11:01:32.364Z,24.57
2018-12-18T11:03:59.798Z,19.70
2018-12-18T11:06:27.207Z,21.57
2018-12-18T11:08:54.603Z,19.20
2018-12-18T11:11:21.990Z,21.00
2018-12-18T11:13:49.439Z,18.23
2018-12-18T11:16:16.919Z,17.97
2018-12-18T11:18:44.733Z,19.00
2018-12-18T11:21:12.225Z,19.83
2018-12-18T11:23:39.683Z,19.13
2018-12-18T11:26:07.364Z,19.33
2018-12-18T11:28:34.875Z,14.50
2018-12-18T11:31:02.387Z,15.07
2018-12-18T11:33:29.985Z,15.40
2018-12-18T11:35:57.361Z,16.63
2018-12-18T11:38:24.815Z,16.03
2018-12-18T11:40:52.330Z,19.93
2018-12-18T11:43:20.054Z,14.83
2018-12-18T11:45:47.465Z,20.00
2018-12-18T11:48:14.887Z,18.27
2018-12-18T11:50:42.287Z,16.67
2018-12-18T11:53:09.690Z,18.47
2018-12-18T11:55:37.109Z,16.77
2018-12-18T11:58:04.527Z,21.17
2018-12-18T12:00:32.027Z,22.00
2018-12-18T12:02:59.431Z,18.23
2018-12-18T12:05:26.948Z,20.30
2018-12-18T12:07:54.369Z,22.80
2018-12-18T12:10:24.020Z,21.83
2018-12-18T12:12:51.562Z,19.70
2018-12-18T12:15:19.061Z,20.10
2018-12-18T12:17:46.550Z,28.30
2018-12-18T12:20:13.977Z,27.37
2018-12-18T12:22:41.418Z,21.83
2018-12-18T12:25:08.826Z,25.17
2018-12-18T12:27:41.957Z,22.17
2018-12-18T12:30:09.606Z,22.93
2018-12-18T12:32:37.046Z,23.77
2018-12-18T12:35:05.122Z,44.03
2018-12-18T12:37:32.595Z,32.83
2018-12-18T12:39:59.990Z,28.83
2018-12-18T12:42:27.397Z,24.20
2018-12-18T12:44:54.827Z,22.37
2018-12-18T12:47:22.268Z,23.20
2018-12-18T12:49:49.674Z,19.83
2018-12-18T12:52:17.063Z,21.87
2018-12-18T12:54:44.458Z,26.20
2018-12-18T12:57:12.151Z,19.57
2018-12-18T12:59:39.557Z,21.10
2018-12-18T13:02:06.945Z,20.13
2018-12-18T13:04:34.349Z,16.17
2018-12-18T13:07:01.793Z,17.43
2018-12-18T13:09:29.203Z,16.50
2018-12-18T13:11:56.590Z,9.53
2018-12-18T13:14:24.057Z,15.23
2018-12-18T13:16:51.446Z,15.80
2018-12-18T13:19:18.867Z,10.63
2018-12-18T13:21:46.278Z,8.20
2018-12-18T13:24:13.668Z,8.00
2018-12-18T13:26:41.063Z,8.87
2018-12-18T13:29:08.563Z,5.87
2018-12-18T13:31:36.078Z,6.87
2018-12-18T13:34:03.632Z,10.67
2018-12-18T13:36:31.023Z,10.40
2018-12-18T13:38:58.541Z,8.27
2018-12-18T13:41:25.984Z,13.03
2018-12-18T13:43:53.390Z,5.23
2018-12-18T13:46:20.805Z,8.70
2018-12-18T13:48:48.214Z,14.23
2018-12-18T13:51:15.647Z,12.47
2018-12-18T13:53:43.066Z,10.30
2018-12-18T13:56:10.506Z,13.17
2018-12-18T13:58:37.889Z,12.63
2018-12-18T14:01:05.411Z,12.20
2018-12-18T14:03:32.799Z,10.77
2018-12-18T14:06:00.250Z,22.23
2018-12-18T14:08:27.704Z,13.03
2018-12-18T14:10:55.102Z,10.63
2018-12-18T14:13:22.535Z,10.37
2018-12-18T14:15:49.984Z,13.60
2018-12-18T14:18:17.474Z,14.97
2018-12-18T14:20:44.874Z,13.93
2018-12-18T14:23:12.366Z,8.47
2018-12-18T14:25:39.802Z,7.87
2018-12-18T14:28:08.232Z,6.57
2018-12-18T14:30:35.701Z,6.90
2018-12-18T14:33:03.214Z,10.23
2018-12-18T14:35:30.602Z,4.80
2018-12-18T14:37:58.082Z,8.53
2018-12-18T14:40:25.621Z,13.10
2018-12-18T14:42:53.088Z,7.43
2018-12-18T14:45:20.489Z,9.53
2018-12-18T14:47:47.892Z,6.97
2018-12-18T14:50:15.326Z,6.63
2018-12-18T14:52:42.816Z,11.03
2018-12-18T14:55:10.214Z,3.13
2018-12-18T14:57:37.674Z,7.63
2018-12-18T15:00:05.781Z,6.20
2018-12-18T15:02:33.209Z,7.30
2018-12-18T15:05:00.608Z,3.20
2018-12-18T15:07:28.041Z,3.90
2018-12-18T15:09:55.422Z,6.50
2018-12-18T15:12:22.867Z,6.07
2018-12-18T15:14:50.310Z,7.77
2018-12-18T15:17:17.700Z,5.30
2018-12-18T15:19:45.206Z,4.27
2018-12-18T15:22:12.609Z,5.80
2018-12-18T15:24:40.030Z,4.20
2018-12-18T15:27:07.450Z,5.50
2018-12-18T15:29:35.841Z,8.07
2018-12-18T15:32:03.674Z,22.67
2018-12-18T15:34:31.910Z,23.80
2018-12-18T15:36:59.349Z,20.80
2018-12-18T15:39:26.779Z,19.37
2018-12-18T15:41:54.183Z,12.43
2018-12-18T15:44:21.698Z,9.37
2018-12-18T15:46:59.405Z,11.97
2018-12-18T15:49:26.858Z,8.43
2018-12-18T15:51:55.247Z,4.93
2018-12-18T15:54:23.782Z,9.30
2018-12-18T15:56:51.428Z,9.50
2018-12-18T15:59:22.345Z,4.33
2018-12-18T16:02:00.156Z,6.87
2018-12-18T16:04:27.653Z,10.73
2018-12-18T16:06:57.629Z,7.37
2018-12-18T16:09:25.098Z,11.50
2018-12-18T16:11:55.119Z,7.93
2018-12-18T16:14:22.674Z,6.07
2018-12-18T16:16:50.438Z,7.97
2018-12-18T16:19:18.842Z,8.00
2018-12-18T16:21:46.283Z,6.23
2018-12-18T16:24:13.698Z,4.50
2018-12-18T16:26:45.101Z,6.70
2018-12-18T16:29:12.697Z,4.80
2018-12-18T16:31:40.618Z,5.93
2018-12-18T16:34:08.483Z,5.67
2018-12-18T16:36:36.472Z,13.10
2018-12-18T16:39:11.102Z,11.60
2018-12-18T16:41:38.929Z,16.73
2018-12-18T16:44:06.403Z,12.60
2018-12-18T16:46:37.665Z,16.97
2018-12-18T16:49:05.136Z,19.07
2018-12-18T16:51:32.704Z,20.80
2018-12-18T16:54:00.279Z,31.83
2018-12-18T16:56:27.976Z,30.43
2018-12-18T16:58:55.530Z,37.70
2018-12-18T17:01:22.916Z,25.10
2018-12-18T17:03:50.337Z,22.30
2018-12-18T17:06:17.782Z,17.70
2018-12-18T17:08:45.198Z,10.80
2018-12-18T17:11:12.624Z,15.77
2018-12-18T17:13:40.151Z,9.07
2018-12-18T17:16:07.613Z,15.63
2018-12-18T17:18:35.101Z,10.20
2018-12-18T17:21:02.599Z,18.80
2018-12-18T17:23:30.001Z,12.07
2018-12-18T17:25:57.369Z,18.60
2018-12-18T17:28:24.821Z,14.93
2018-12-18T17:30:52.283Z,11.27
2018-12-18T17:33:19.690Z,16.63
2018-12-18T17:35:47.243Z,9.50
2018-12-18T17:38:14.874Z,17.20
2018-12-18T17:40:43.595Z,13.40
2018-12-18T17:43:11.085Z,11.63
2018-12-18T17:45:38.485Z,8.33
2018-12-18T17:48:05.996Z,9.83
2018-12-18T17:50:33.469Z,12.63
2018-12-18T17:53:01.051Z,22.50
2018-12-18T17:55:28.516Z,12.47
2018-12-18T18:00:22.446Z,13.80
2018-12-18T18:02:49.882Z,13.93
2018-12-18T18:05:17.286Z,10.30
2018-12-18T18:07:44.694Z,17.23
2018-12-18T18:10:12.148Z,10.77
2018-12-18T18:12:39.588Z,13.47
2018-12-18T18:15:29.372Z,15.13
2018-12-18T18:18:11.359Z,12.50
2018-12-18T18:20:38.803Z,10.20
2018-12-18T18:23:06.286Z,11.03
2018-12-18T18:25:34.197Z,17.03
2018-12-18T18:28:01.710Z,15.43
2018-12-18T18:30:30.892Z,19.17
2018-12-18T18:32:58.278Z,25.77
2018-12-18T18:35:25.876Z,25.33
2018-12-18T18:37:53.293Z,20.43
2018-12-18T18:40:20.777Z,21.93
2018-12-18T18:42:48.290Z,15.27
2018-12-18T18:45:15.746Z,11.30
2018-12-18T18:47:43.151Z,15.20
2018-12-18T18:50:13.243Z,31.90
2018-12-18T18:52:42.840Z,21.30
2018-12-18T18:55:10.432Z,17.67
2018-12-18T18:57:37.894Z,12.87
2018-12-18T19:00:06.818Z,16.67
2018-12-18T19:02:34.238Z,12.17
2018-12-18T19:05:01.695Z,16.60
2018-12-18T19:07:29.113Z,15.60
2018-12-18T19:09:56.549Z,12.63
2018-12-18T19:12:23.948Z,18.23
2018-12-18T19:14:51.338Z,15.83
2018-12-18T19:17:18.747Z,14.47
2018-12-18T19:19:46.158Z,25.20
2018-12-18T19:22:55.723Z,24.00
2018-12-18T19:25:23.122Z,23.40
2018-12-18T19:27:50.504Z,12.40
2018-12-18T19:30:17.984Z,18.03
2018-12-18T19:32:46.911Z,16.30
2018-12-18T19:35:14.655Z,16.23
2018-12-18T19:37:42.072Z,11.03
2018-12-18T19:40:10.336Z,8.47
2018-12-18T19:42:38.114Z,9.13
2018-12-18T19:45:06.334Z,7.33
2018-12-18T19:47:33.767Z,10.87
2018-12-18T19:50:01.210Z,11.57
2018-12-18T19:52:28.629Z,9.30
2018-12-18T19:54:56.026Z,8.40
2018-12-18T19:57:23.495Z,11.60
2018-12-18T19:59:50.927Z,18.43
2018-12-18T20:02:18.403Z,13.53
2018-12-18T20:04:45.914Z,13.57
2018-12-18T20:07:13.315Z,10.27
2018-12-18T20:09:40.826Z,15.53
2018-12-18T20:12:08.961Z,20.77
2018-12-18T20:14:36.790Z,19.23
2018-12-18T20:17:04.338Z,16.00
2018-12-18T20:19:31.898Z,16.50
2018-12-18T20:21:59.349Z,17.53
2018-12-18T20:24:26.772Z,20.43
2018-12-18T20:26:54.213Z,15.77
2018-12-18T20:29:21.679Z,21.23
2018-12-18T20:31:49.074Z,16.87
2018-12-18T20:34:16.530Z,12.33
2018-12-18T20:36:45.261Z,21.33
2018-12-18T20:39:12.847Z,37.70
2018-12-18T20:41:40.348Z,29.50
2018-12-18T20:44:07.854Z,22.90
2018-12-18T20:46:35.474Z,23.07
2018-12-18T20:49:02.990Z,29.77
2018-12-18T20:51:30.490Z,30.50
2018-12-18T20:53:57.970Z,26.73
2018-12-18T20:56:25.541Z,18.03
2018-12-18T20:58:52.994Z,16.20
2018-12-18T21:01:20.416Z,19.13
2018-12-18T21:03:47.823Z,19.90
2018-12-18T21:06:15.302Z,21.97
2018-12-18T21:08:42.691Z,19.03
2018-12-18T21:11:10.096Z,30.27
2018-12-18T21:13:37.577Z,24.00
2018-12-18T21:16:05.051Z,24.20
2018-12-18T21:18:32.448Z,20.17
2018-12-18T21:20:59.915Z,19.90
2018-12-18T21:23:27.318Z,18.83
2018-12-18T21:25:54.845Z,20.77
2018-12-18T21:28:22.384Z,23.33
2018-12-18T21:30:49.850Z,26.97
2018-12-18T21:33:17.348Z,29.57
2018-12-18T21:35:44.979Z,45.60
2018-12-18T21:38:13.586Z,34.87
2018-12-18T21:40:51.028Z,35.37
2018-12-18T21:43:18.505Z,33.97
2018-12-18T21:45:46.427Z,31.03
2018-12-18T21:48:13.913Z,32.27
2018-12-18T21:50:42.444Z,30.53
2018-12-18T21:53:09.957Z,22.37
2018-12-18T21:55:37.412Z,27.60
2018-12-18T21:58:04.930Z,17.23
2018-12-18T22:00:32.369Z,16.70
2018-12-18T22:02:59.871Z,17.00
2018-12-18T22:05:27.339Z,14.23
2018-12-18T22:07:54.865Z,14.87
2018-12-18T22:10:22.359Z,17.13
2018-12-18T22:12:49.838Z,14.57
2018-12-18T22:15:17.320Z,14.40
2018-12-18T22:17:44.799Z,17.13
2018-12-18T22:20:12.295Z,17.00
2018-12-18T22:22:39.846Z,17.10
2018-12-18T22:25:07.326Z,21.10
2018-12-18T22:27:34.836Z,18.20
2018-12-18T22:30:07.108Z,18.40
2018-12-18T22:32:46.964Z,18.50
2018-12-18T22:35:14.525Z,20.30
2018-12-18T22:37:42.060Z,23.13
2018-12-18T22:40:09.591Z,20.77
2018-12-18T22:42:37.841Z,20.20
2018-12-18T22:45:05.598Z,24.80
2018-12-18T22:47:33.794Z,22.67
2018-12-18T22:50:01.398Z,23.37
2018-12-18T22:52:28.852Z,21.67
2018-12-18T22:54:56.566Z,26.17
2018-12-18T22:57:24.098Z,25.70
2018-12-18T22:59:51.571Z,26.83
2018-12-18T23:02:19.097Z,26.80
2018-12-18T23:04:46.768Z,30.50
2018-12-18T23:07:14.262Z,28.37
2018-12-18T23:09:42.702Z,30.53
2018-12-18T23:12:13.634Z,40.23
2018-12-18T23:14:47.631Z,41.97
2018-12-18T23:17:15.751Z,33.97
2018-12-18T23:22:41.746Z,53.67
2018-12-18T23:25:09.294Z,35.03
2018-12-18T23:27:36.986Z,37.97
2018-12-18T23:30:05.028Z,33.57
2018-12-18T23:32:32.558Z,26.30
2018-12-18T23:35:00.187Z,33.07
2018-12-18T23:37:27.620Z,27.90
2018-12-18T23:39:55.156Z,29.13
2018-12-18T23:42:22.687Z,28.80
2018-12-18T23:44:50.272Z,26.93
2018-12-18T23:47:17.800Z,29.87
2018-12-18T23:49:45.326Z,29.13
2018-12-18T23:52:13.020Z,30.23
2018-12-18T23:54:40.512Z,28.17
2018-12-18T23:57:08.021Z,29.73
2018-12-18T23:59:35.494Z,27.87
